TimeMDT,TemperatureF,Dew PointF,Humidity,Sea Level PressureIn,VisibilityMPH,Wind Direction,Wind SpeedMPH,Gust SpeedMPH,PrecipitationIn,Events,Conditions,WindDirDegrees,DateUTC
12:58 AM,65.1,54.3,68,29.97,10.0,South,5.8,-,N/A,,Mostly Cloudy,170,2013-08-18 06:58:00
1:58 AM,63.3,54.5,73,29.96,10.0,NNE,2.3,-,N/A,,Scattered Clouds,20,2013-08-18 07:58:00
2:58 AM,58.3,53.1,83,29.95,10.0,North,6.9,-,N/A,,Scattered Clouds,350,2013-08-18 08:58:00
3:58 AM,55.8,52.5,89,29.94,10.0,North,6.9,-,N/A,,Clear,360,2013-08-18 09:58:00
4:58 AM,54.1,50.9,89,29.95,10.0,North,8.1,-,N/A,,Clear,10,2013-08-18 10:58:00
5:58 AM,56.5,52.0,85,29.94,10.0,North,6.9,-,N/A,,Partly Cloudy,350,2013-08-18 11:58:00
6:58 AM,64.8,48.4,55,29.95,10.0,WNW,5.8,-,N/A,,Partly Cloudy,300,2013-08-18 12:58:00
7:58 AM,70.0,44.8,40,29.96,10.0,North,5.8,-,N/A,,Clear,350,2013-08-18 13:58:00
8:58 AM,79.2,39.4,24,29.94,10.0,NNW,3.5,-,N/A,,Clear,330,2013-08-18 14:58:00
9:58 AM,83.8,35.1,17,29.92,10.0,North,9.2,-,N/A,,Clear,10,2013-08-18 15:58:00
10:58 AM,86.4,33.8,15,29.92,10.0,NE,10.4,-,N/A,,Clear,50,2013-08-18 16:58:00
11:58 AM,83.3,52.0,34,29.93,10.0,SSW,10.4,-,N/A,,Partly Cloudy,200,2013-08-18 17:58:00
12:45 PM,82.4,48.2,30,30.23,10.0,South,12.7,-,N/A,Thunderstorm,Thunderstorm,170,2013-08-18 18:45:00
12:58 PM,83.1,44.4,26,29.93,10.0,South,8.1,20.7,N/A,Thunderstorm,Thunderstorm,170,2013-08-18 18:58:00
1:04 PM,82.4,44.6,26,30.23,10.0,South,8.1,-,N/A,,Scattered Clouds,170,2013-08-18 19:04:00
1:37 PM,82.4,32.0,16,30.22,10.0,South,15.0,41.4,N/A,Thunderstorm,Clear,190,2013-08-18 19:37:00
1:58 PM,85.6,33.3,15,29.92,10.0,West,8.1,-,N/A,Thunderstorm,Partly Cloudy,260,2013-08-18 19:58:00
2:26 PM,84.2,41.0,22,30.22,10.0,NNE,16.1,21.9,N/A,,Scattered Clouds,20,2013-08-18 20:26:00
2:58 PM,83.5,36.3,19,29.94,10.0,ENE,6.9,-,N/A,,Scattered Clouds,60,2013-08-18 20:58:00
3:58 PM,85.5,38.5,19,29.93,10.0,South,10.4,-,N/A,,Partly Cloudy,170,2013-08-18 21:58:00
4:58 PM,80.2,43.9,28,29.96,10.0,ESE,11.5,-,N/A,,Mostly Cloudy,110,2013-08-18 22:58:00
5:02 PM,78.8,44.6,30,30.23,10.0,ESE,10.4,-,N/A,Rain,Light Rain,120,2013-08-18 23:02:00
5:14 PM,75.2,46.4,36,30.23,10.0,East,10.4,29.9,N/A,,Scattered Clouds,100,2013-08-18 23:14:00
5:35 PM,73.4,50.0,44,30.27,10.0,WNW,9.2,-,N/A,Rain,Light Rain,300,2013-08-18 23:35:00
5:58 PM,70.2,49.1,47,30.05,10.0,South,5.8,-,0.01,Rain,Light Rain,190,2013-08-18 23:58:00
6:03 PM,71.6,48.2,43,30.28,10.0,SW,13.8,18.4,N/A,Rain,Light Rain,220,2013-08-19 00:03:00
6:13 PM,69.8,48.2,46,30.28,10.0,Variable,1.2,18.4,N/A,Rain,Light Rain,0,2013-08-19 00:13:00
6:18 PM,69.8,51.8,53,30.27,10.0,SE,3.5,-,N/A,,Scattered Clouds,130,2013-08-19 00:18:00
6:58 PM,70.3,57.4,63,30.00,10.0,North,6.9,-,0.00,,Clear,350,2013-08-19 00:58:00
7:58 PM,68.7,50.9,53,30.00,10.0,NNW,6.9,-,N/A,,Mostly Cloudy,330,2013-08-19 01:58:00
8:58 PM,65.8,50.2,57,29.99,10.0,North,8.1,-,N/A,,Partly Cloudy,350,2013-08-19 02:58:00
9:58 PM,65.8,48.2,53,29.99,10.0,North,8.1,-,N/A,,Scattered Clouds,360,2013-08-19 03:58:00
10:58 PM,64.4,48.9,57,29.99,10.0,North,2.3,-,N/A,,Mostly Cloudy,10,2013-08-19 04:58:00
11:58 PM,67.6,46.9,47,30.02,10.0,Variable,6.9,-,N/A,,Clear,0,2013-08-19 05:58:00